Wednesday, September 20, 2017, 9:31 PM EDT

KUNV, State College, University Park Airport

Location: State College, PA, United States Lat: 40.85
Local Time: 9:31 PM EDT ( 1:31 GMT) Lon: -77.85
Time Zone: US/Eastern Elev: 1240 ft

Show me the last for .
Show Decoded

2017-09-20 20:53 METAR KUNV 210053Z 00000KT 10SM SCT075 SCT095 22/15 A3002 =
2017-09-20 19:53 METAR KUNV 202353Z 00000KT 10SM SKC 23/15 A3001 =
2017-09-20 18:53 METAR KUNV 202253Z 30005KT 10SM SKC 25/14 A3000 =
2017-09-20 17:53 METAR KUNV 202153Z 00000KT 10SM SKC 27/12 A3000 =
2017-09-20 16:53 METAR KUNV 202053Z 30006KT 10SM FEW060 28/10 A3000 =
2017-09-20 15:53 METAR KUNV 201953Z 29004KT 10SM SKC 28/11 A3000 =
2017-09-20 14:53 METAR KUNV 201853Z 29005KT 10SM SKC 28/11 A3000 =
2017-09-20 13:53 METAR KUNV 201753Z 00000KT 10SM SKC 27/16 A3001 =
2017-09-20 12:53 METAR KUNV 201653Z 00000KT 10SM SKC 25/17 A3003 =
2017-09-20 11:53 METAR KUNV 201553Z 00000KT 10SM SKC 22/17 A3004 =
2017-09-20 10:53 METAR KUNV 201453Z 00000KT 10SM SKC 18/17 A3005 =
2017-09-20 10:20 METAR KUNV 201420Z 00000KT 3SM BR SCT005 17/17 A3007 =
2017-09-20 10:10 METAR KUNV 201410Z 00000KT 1SM BR OVC001 16/16 A3007 =
2017-09-20 09:53 METAR KUNV 201353Z 00000KT 1/8SM FG OVC001 16/16 A3007 =
2017-09-20 08:53 METAR KUNV 201253Z 00000KT 1/8SM FG OVC001 14/14 A3005 =
2017-09-20 07:53 METAR KUNV 201153Z 00000KT 1/8SM FG OVC001 13/13 A3004 =
2017-09-20 06:53 METAR KUNV 201053Z 00000KT 1/8SM FG OVC001 13/13 A3003 =
2017-09-20 06:30 METAR KUNV 201030Z 00000KT 1/4SM FG OVC001 12/12 A3002 =
2017-09-20 05:53 METAR KUNV 200953Z 00000KT 1/2SM FG SCT001 12/12 A3001 =
2017-09-20 05:35 METAR KUNV 200935Z AUTO 00000KT 1/4SM FG OVC001 13/13 A3001 RMK AO2 T01270127 =
2017-09-20 05:15 METAR KUNV 200915Z AUTO 00000KT M1/4SM FG VV000 13/13 A3001 RMK AO2 T01310130 =
2017-09-20 04:55 METAR KUNV 200855Z AUTO 00000KT 3/4SM BR SCT055 BKN065 OVC100 13/13 A3001 RMK
                 AO2 VIS 1/2V4 T01310130 =
2017-09-20 04:40 METAR KUNV 200840Z AUTO 00000KT 7SM BKN100 14/14 A3000 RMK AO2 T01400138 =
2017-09-20 04:15 METAR KUNV 200815Z AUTO 00000KT 5SM BR BKN100 14/14 A3000 RMK AO2 T01390138 =
2017-09-20 03:55 METAR KUNV 200755Z AUTO 00000KT 3/4SM BR SCT039 SCT065 BKN100 14/13 A3000 RMK
                 AO2 T01360134 =
2017-09-20 03:35 METAR KUNV 200735Z AUTO 00000KT 1/4SM FG VV002 13/13 A3000 RMK AO2 T01330131 =
2017-09-20 03:15 METAR KUNV 200715Z AUTO 00000KT 10SM SCT100 14/14 A3000 RMK AO2 T01430140 =
2017-09-20 02:55 METAR KUNV 200655Z AUTO 00000KT 3SM BR BKN100 14/14 A3000 RMK AO2 T01370137 =
2017-09-20 02:35 METAR KUNV 200635Z AUTO 00000KT 7SM SCT085 BKN110 14/14 A3001 RMK AO2 T01370136
                 =
2017-09-20 02:15 METAR KUNV 200615Z AUTO 00000KT 1/4SM FG BKN060 BKN080 BKN110 14/14 A3000 RMK
                 AO2 T01420141 =
2017-09-20 01:55 METAR KUNV 200555Z AUTO 00000KT 1/4SM FG VV002 14/14 A3000 RMK AO2 T01440142
                 10208 20144 =
2017-09-20 01:35 METAR KUNV 200535Z AUTO 00000KT 3SM BR SCT070 SCT100 15/14 A3000 RMK AO2
                 T01490144 =
2017-09-20 01:15 METAR KUNV 200515Z AUTO 00000KT 10SM SCT070 15/15 A3000 RMK AO2 T01540146 =
2017-09-20 00:55 METAR KUNV 200455Z AUTO 00000KT 10SM SCT070 SCT080 SCT090 16/15 A3000 RMK AO2
                 T01550149 =
2017-09-20 00:35 METAR KUNV 200435Z AUTO 00000KT 7SM SCT070 SCT090 15/15 A3000 RMK AO2 T01540148
                 =
2017-09-20 00:15 METAR KUNV 200415Z AUTO 00000KT 10SM CLR 16/16 A3000 RMK AO2 T01620158 =
2017-09-19 23:55 METAR KUNV 200355Z AUTO 00000KT 5SM BR CLR 16/16 A3000 RMK AO2 T01600156 =
2017-09-19 23:35 METAR KUNV 200335Z AUTO 00000KT 10SM CLR 16/15 A3000 RMK AO2 T01630149 =
2017-09-19 23:15 METAR KUNV 200315Z AUTO 00000KT 10SM SCT100 17/16 A3001 RMK AO2 T01670155 =
2017-09-19 22:55 METAR KUNV 200255Z AUTO 00000KT 10SM SCT055 SCT080 SCT100 17/16 A3001 RMK AO2
                 T01740157 =
2017-09-19 22:35 METAR KUNV 200235Z AUTO 00000KT 10SM SCT065 SCT075 17/16 A3001 RMK AO2 T01700155
                 =
2017-09-19 22:15 METAR KUNV 200215Z AUTO 00000KT 10SM SCT070 17/15 A3000 RMK AO2 T01720153 =

Support USWX by starting your Amazon purchase here.